Time;durP1;ratioP1;P1;durP2;ratioP2;P2;SDS_P1;SDS_P2;PMS_P1;PMS_P2;Temp;Humidity;BMP_temperature;BMP_pressure;BME280_temperature;BME280_humidity;BME280_pressure;Samples;Min_cycle;Max_cycle;Signal;HPM_P1;HPM_P2
2021/06/19 00:01:17;;;;;;;20.25;10.15;;;;;;;21.41;66.02;99174.38;5012500;28;20100;-62
2021/06/19 00:03:42;;;;;;;20.10;9.60;;;;;;;21.40;65.82;99170.06;5012462;28;20092;-62
2021/06/19 00:06:08;;;;;;;18.75;9.55;;;;;;;21.46;65.53;99175.03;5012030;28;20558;-62
2021/06/19 00:08:33;;;;;;;16.88;9.32;;;;;;;21.43;65.53;99174.88;5012187;28;20428;-62
2021/06/19 00:10:59;;;;;;;20.63;10.00;;;;;;;21.43;65.96;99183.03;5012425;28;20038;-63
2021/06/19 00:13:24;;;;;;;15.43;9.73;;;;;;;21.31;66.53;99189.84;5012632;28;20628;-63
2021/06/19 00:15:50;;;;;;;23.77;9.93;;;;;;;21.27;66.88;99193.53;5012208;28;20499;-64
2021/06/19 00:18:15;;;;;;;18.02;9.90;;;;;;;21.04;68.01;99195.50;5012550;28;20516;-64
2021/06/19 00:20:41;;;;;;;21.58;10.07;;;;;;;21.01;68.12;99185.22;5011759;28;20045;-64
2021/06/19 00:23:06;;;;;;;17.50;10.00;;;;;;;21.06;68.07;99185.09;5011463;28;20041;-62
2021/06/19 00:25:32;;;;;;;15.65;9.55;;;;;;;21.07;67.94;99192.16;5012194;28;20088;-62
2021/06/19 00:27:57;;;;;;;25.60;10.05;;;;;;;21.16;67.40;99192.19;5011918;28;20064;-62
2021/06/19 00:30:23;;;;;;;16.63;9.23;;;;;;;21.19;67.16;99195.13;5011434;28;20112;-62
2021/06/19 00:32:48;;;;;;;18.30;9.15;;;;;;;21.16;67.59;99192.19;5011362;28;20018;-63
2021/06/19 00:35:14;;;;;;;20.67;9.25;;;;;;;21.08;67.46;99193.75;5014266;28;20117;-63
2021/06/19 00:37:39;;;;;;;18.27;10.02;;;;;;;21.11;67.47;99199.38;5015992;28;20026;-63
2021/06/19 00:40:07;;;;;;;22.27;9.57;;;;;;;21.03;67.95;99208.31;5014100;28;20056;-63
2021/06/19 00:42:33;;;;;;;16.67;9.18;;;;;;;21.09;67.34;99204.38;5016190;28;20034;-63
2021/06/19 00:44:58;;;;;;;21.02;9.75;;;;;;;20.99;68.06;99207.34;5015891;28;20010;-63
2021/06/19 00:47:25;;;;;;;18.73;8.32;;;;;;;21.05;67.19;99210.75;5015665;28;20042;-63
2021/06/19 00:49:50;;;;;;;14.80;8.50;;;;;;;20.99;67.19;99210.06;5015804;28;20536;-63
2021/06/19 00:52:16;;;;;;;18.83;8.40;;;;;;;20.99;67.38;99206.53;5014325;28;20052;-63
2021/06/19 00:54:41;;;;;;;14.05;8.40;;;;;;;20.81;67.92;99222.75;5013925;28;20076;-63
2021/06/19 00:57:08;;;;;;;23.83;8.52;;;;;;;20.83;67.99;99226.00;5015466;28;20038;-63
2021/06/19 00:59:35;;;;;;;16.55;7.80;;;;;;;20.84;67.61;99227.63;5014155;28;20432;-63
2021/06/19 01:02:00;;;;;;;15.25;7.15;;;;;;;20.80;67.56;99226.63;4998098;28;20038;-62
2021/06/19 01:04:26;;;;;;;18.05;7.47;;;;;;;20.77;67.86;99227.25;4997734;28;20088;-62
2021/06/19 01:06:51;;;;;;;11.68;7.10;;;;;;;20.84;67.22;99229.50;5015091;28;20096;-63
2021/06/19 01:09:16;;;;;;;15.57;7.03;;;;;;;20.87;67.04;99235.16;5014099;28;20036;-63
2021/06/19 01:11:42;;;;;;;16.52;7.00;;;;;;;20.86;66.50;99246.34;5015134;28;20108;-62
2021/06/19 01:14:08;;;;;;;13.68;6.35;;;;;;;20.94;66.26;99259.22;5014142;28;20026;-63
2021/06/19 01:16:33;;;;;;;13.77;6.55;;;;;;;20.93;66.35;99248.66;5014856;28;20041;-63
2021/06/19 01:18:59;;;;;;;12.98;6.47;;;;;;;20.88;66.52;99244.94;5015084;28;20381;-63
2021/06/19 01:21:26;;;;;;;15.88;7.25;;;;;;;20.87;66.52;99251.50;5013708;28;20038;-63
2021/06/19 01:23:52;;;;;;;18.23;7.43;;;;;;;20.82;66.72;99245.38;5015043;28;20041;-63
2021/06/19 01:26:19;;;;;;;16.67;7.30;;;;;;;20.66;67.87;99253.09;5014584;28;20124;-62
2021/06/19 01:28:44;;;;;;;17.02;8.65;;;;;;;20.58;68.56;99245.66;4994351;28;20030;-63
2021/06/19 01:31:10;;;;;;;15.93;7.78;;;;;;;20.48;69.38;99249.41;4993992;28;20038;-64
2021/06/19 01:33:39;;;;;;;24.38;9.35;;;;;;;20.42;69.64;99254.16;5005033;28;20040;-63
2021/06/19 01:36:05;;;;;;;13.27;7.75;;;;;;;20.40;69.88;99252.88;5014437;28;20049;-63
2021/06/19 01:38:32;;;;;;;20.70;8.82;;;;;;;20.31;71.05;99257.41;5014915;28;20041;-63
2021/06/19 01:40:57;;;;;;;18.60;8.77;;;;;;;20.23;71.40;99256.22;5014316;28;20065;-63
2021/06/19 01:43:23;;;;;;;27.65;9.48;;;;;;;20.18;72.03;99259.06;5015014;28;20087;-63
2021/06/19 01:45:48;;;;;;;21.45;10.00;;;;;;;20.07;72.61;99263.09;5012854;28;20034;-63
2021/06/19 01:48:14;;;;;;;19.98;9.63;;;;;;;20.02;72.75;99262.09;5014817;28;20053;-63
2021/06/19 01:50:40;;;;;;;17.80;9.25;;;;;;;20.07;72.03;99263.09;5014544;28;20034;-63
2021/06/19 01:53:06;;;;;;;19.38;9.48;;;;;;;20.11;72.13;99272.25;5014462;28;20036;-63
2021/06/19 01:55:31;;;;;;;22.65;9.18;;;;;;;19.94;72.32;99262.78;5013910;28;20038;-63
2021/06/19 01:57:58;;;;;;;13.55;8.60;;;;;;;19.95;72.05;99260.91;5014814;28;20032;-63
2021/06/19 02:00:31;;;;;;;17.83;8.90;;;;;;;20.04;71.81;99262.63;5014095;28;20069;-63
2021/06/19 02:02:56;;;;;;;19.20;7.97;;;;;;;20.14;70.84;99258.03;5014543;28;20021;-63
2021/06/19 02:05:22;;;;;;;18.38;8.50;;;;;;;20.02;71.36;99251.22;5012470;28;20121;-63
2021/06/19 02:07:52;;;;;;;21.08;7.97;;;;;;;19.99;71.19;99257.28;5014304;28;20291;-63
2021/06/19 02:10:18;;;;;;;17.42;8.30;;;;;;;19.92;71.03;99259.59;5014373;28;20121;-63
2021/06/19 02:12:43;;;;;;;21.05;7.97;;;;;;;20.13;69.88;99256.44;5012986;28;20022;-64
2021/06/19 02:15:09;;;;;;;12.57;7.05;;;;;;;20.45;68.39;99256.25;5014084;28;20076;-63
2021/06/19 02:17:35;;;;;;;17.38;6.72;;;;;;;20.54;67.56;99247.34;5014226;28;20481;-63
2021/06/19 02:20:00;;;;;;;13.85;6.55;;;;;;;20.54;67.43;99244.63;5013967;28;20384;-64
2021/06/19 02:22:26;;;;;;;14.48;6.20;;;;;;;20.68;66.80;99234.53;5014576;28;20026;-63
2021/06/19 02:24:51;;;;;;;10.90;6.00;;;;;;;20.54;66.68;99239.19;5013091;28;20091;-63
2021/06/19 02:27:18;;;;;;;13.70;6.25;;;;;;;20.59;66.34;99253.53;5012212;28;20044;-63
2021/06/19 02:29:44;;;;;;;13.82;6.10;;;;;;;20.59;65.96;99248.09;5013935;28;20022;-63
2021/06/19 02:32:09;;;;;;;14.77;5.63;;;;;;;20.73;65.75;99241.78;5013676;28;20519;-63
2021/06/19 02:34:35;;;;;;;15.68;5.60;;;;;;;20.56;65.81;99221.47;5013728;28;20030;-63
2021/06/19 02:37:01;;;;;;;13.75;5.85;;;;;;;20.70;65.57;99224.16;5013334;28;20378;-63
2021/06/19 02:39:26;;;;;;;14.05;5.75;;;;;;;20.69;65.47;99225.25;5013901;28;20037;-63
2021/06/19 02:41:52;;;;;;;10.30;5.28;;;;;;;20.79;65.29;99225.03;5013225;28;20046;-64
2021/06/19 02:44:17;;;;;;;15.50;5.82;;;;;;;20.70;65.98;99226.88;5013818;28;20045;-63
2021/06/19 02:46:42;;;;;;;12.65;5.50;;;;;;;20.74;65.99;99216.94;5012560;28;20057;-63
2021/06/19 02:49:08;;;;;;;13.32;5.80;;;;;;;20.69;66.87;99225.25;5013745;28;20029;-63
2021/06/19 02:51:33;;;;;;;10.80;6.00;;;;;;;20.48;67.26;99236.59;5012816;28;20165;-63
2021/06/19 02:53:59;;;;;;;14.02;6.28;;;;;;;19.98;68.62;99227.66;5012364;28;20060;-63
2021/06/19 02:56:24;;;;;;;11.55;6.13;;;;;;;19.86;69.36;99230.88;5012770;28;20045;-63
2021/06/19 02:58:50;;;;;;;13.43;6.10;;;;;;;19.60;70.76;99227.84;5013154;28;20022;-63
2021/06/19 03:01:15;;;;;;;13.73;6.13;;;;;;;19.71;70.61;99233.91;5012838;28;20038;-63
2021/06/19 03:03:40;;;;;;;12.35;6.40;;;;;;;19.42;71.70;99232.28;5013103;28;20021;-63
2021/06/19 03:06:06;;;;;;;14.00;6.35;;;;;;;19.18;72.45;99241.38;5012824;28;20049;-63
2021/06/19 03:08:31;;;;;;;16.15;6.85;;;;;;;19.30;72.18;99237.41;5013686;28;20026;-62
2021/06/19 03:10:57;;;;;;;13.85;7.30;;;;;;;19.08;73.15;99238.84;5012562;28;20042;-63
2021/06/19 03:13:22;;;;;;;15.98;7.10;;;;;;;19.08;73.66;99244.28;5013519;28;20049;-62
2021/06/19 03:15:48;;;;;;;16.25;6.45;;;;;;;19.07;73.29;99242.69;5012747;28;20038;-63
2021/06/19 03:18:13;;;;;;;16.45;6.68;;;;;;;18.87;73.88;99243.00;5013436;28;20053;-62
2021/06/19 03:20:39;;;;;;;15.18;7.95;;;;;;;19.16;73.58;99259.91;5011260;28;20045;-62
2021/06/19 03:23:05;;;;;;;13.95;7.07;;;;;;;18.91;73.64;99260.34;5013245;28;20357;-62
2021/06/19 03:25:42;;;;;;;16.17;7.15;;;;;;;18.51;75.51;99262.53;5012680;28;20045;-63
2021/06/19 03:28:08;;;;;;;9.18;6.70;;;;;;;18.58;75.10;99262.97;5013158;28;20022;-62
2021/06/19 03:30:35;;;;;;;18.85;7.00;;;;;;;18.63;75.25;99268.34;5012307;28;20373;-63
2021/06/19 03:33:01;;;;;;;19.73;6.75;;;;;;;18.95;73.73;99272.22;5013100;28;20018;-63
2021/06/19 03:35:26;;;;;;;14.73;7.13;;;;;;;19.45;72.06;99280.59;5012326;28;20050;-63
2021/06/19 03:37:53;;;;;;;15.25;6.63;;;;;;;20.18;69.12;99286.25;5013216;28;20092;-62
2021/06/19 03:40:18;;;;;;;17.48;5.90;;;;;;;19.80;69.60;99297.38;5011179;28;20025;-63
2021/06/19 03:42:45;;;;;;;16.98;6.22;;;;;;;19.98;69.16;99299.19;5012942;28;20063;-63
2021/06/19 03:45:11;;;;;;;13.73;5.90;;;;;;;20.08;68.78;99305.53;5012433;28;20039;-63
2021/06/19 03:47:40;;;;;;;14.88;5.45;;;;;;;19.95;68.71;99309.88;5012747;28;20480;-63
2021/06/19 03:50:07;;;;;;;11.25;5.65;;;;;;;19.98;68.49;99309.25;5012381;28;20053;-63
2021/06/19 03:52:33;;;;;;;11.40;5.35;;;;;;;20.13;68.20;99310.88;5012898;28;20121;-63
2021/06/19 03:54:58;;;;;;;14.07;5.93;;;;;;;20.18;67.92;99310.75;5012574;28;20025;-63
2021/06/19 03:57:28;;;;;;;9.50;4.82;;;;;;;20.47;66.66;99311.22;5012167;28;20045;-63
2021/06/19 03:59:54;;;;;;;11.70;5.47;;;;;;;19.88;68.49;99315.69;5012385;28;20045;-62
2021/06/19 04:02:19;;;;;;;14.07;5.13;;;;;;;20.09;68.06;99318.00;5011930;28;20042;-62
2021/06/19 04:04:45;;;;;;;9.77;4.97;;;;;;;21.65;62.71;99326.69;5011244;28;20033;-63
2021/06/19 04:07:11;;;;;;;12.38;5.47;;;;;;;23.16;58.18;99329.91;5012258;28;20453;-63
2021/06/19 04:09:37;;;;;;;9.77;4.53;;;;;;;24.11;54.62;99336.22;5013869;28;20380;-63
2021/06/19 04:12:03;;;;;;;11.95;4.70;;;;;;;24.50;52.97;99345.25;5015857;28;20061;-63
2021/06/19 04:14:28;;;;;;;11.10;4.60;;;;;;;24.67;52.30;99336.91;5015774;28;20026;-63
2021/06/19 04:16:54;;;;;;;16.08;4.90;;;;;;;25.13;51.23;99343.28;5016177;28;20093;-63
2021/06/19 04:19:19;;;;;;;14.77;4.95;;;;;;;25.82;49.72;99338.22;5016178;28;20057;-63
2021/06/19 04:21:45;;;;;;;8.55;4.53;;;;;;;26.87;46.41;99335.66;5016222;28;20034;-64
2021/06/19 04:24:10;;;;;;;9.63;4.43;;;;;;;27.02;45.86;99347.06;5014760;28;20049;-63
2021/06/19 04:26:36;;;;;;;10.40;4.20;;;;;;;27.54;45.27;99346.94;5016091;28;20429;-63
2021/06/19 04:29:01;;;;;;;12.15;5.10;;;;;;;27.89;43.59;99345.50;5016153;28;20413;-63
2021/06/19 04:31:27;;;;;;;9.02;4.40;;;;;;;28.22;43.17;99347.06;5015800;28;20112;-63
2021/06/19 04:33:52;;;;;;;11.38;4.18;;;;;;;27.64;43.71;99356.66;5014489;28;20033;-63
2021/06/19 04:36:19;;;;;;;11.68;3.85;;;;;;;26.28;46.97;99352.69;5015616;28;20038;-63
2021/06/19 04:38:44;;;;;;;11.13;4.30;;;;;;;25.71;49.23;99345.28;5015740;28;20034;-63
2021/06/19 04:41:22;;;;;;;7.25;3.90;;;;;;;25.65;49.57;99341.19;5015953;28;20115;-63
2021/06/19 04:46:13;;;;;;;10.95;4.13;;;;;;;24.07;53.57;99346.25;5015727;28;20068;-63
2021/06/19 04:48:39;;;;;;;8.98;4.22;;;;;;;25.63;49.38;99351.69;5015855;28;20421;-63
2021/06/19 04:51:04;;;;;;;7.65;3.88;;;;;;;24.95;50.48;99352.81;5015587;28;20507;-64
2021/06/19 04:53:30;;;;;;;9.88;4.32;;;;;;;25.33;49.96;99351.84;5015709;28;20037;-63
2021/06/19 04:55:55;;;;;;;8.02;4.13;;;;;;;26.62;46.27;99348.66;5015498;28;20045;-63
2021/06/19 04:58:21;;;;;;;12.68;3.60;;;;;;;25.52;49.42;99352.13;5014528;28;20026;-63
2021/06/19 05:00:46;;;;;;;13.60;4.07;;;;;;;24.29;52.36;99350.66;5013623;28;20475;-63
2021/06/19 05:03:13;;;;;;;11.65;4.35;;;;;;;24.80;51.66;99342.44;5015593;28;20030;-63
2021/06/19 05:05:39;;;;;;;8.07;3.63;;;;;;;26.36;47.21;99338.03;5015204;28;20073;-63
2021/06/19 05:08:06;;;;;;;7.10;3.70;;;;;;;27.23;45.29;99338.63;5015685;28;20109;-63
2021/06/19 05:10:31;;;;;;;10.43;3.83;;;;;;;26.09;47.06;99344.25;5014524;28;20038;-63
2021/06/19 05:12:57;;;;;;;8.57;3.60;;;;;;;26.46;46.84;99337.56;5015112;28;20415;-63
2021/06/19 05:15:26;;;;;;;13.80;3.60;;;;;;;28.06;42.88;99342.38;5014418;28;20464;-63
2021/06/19 05:17:52;;;;;;;11.68;3.70;;;;;;;29.42;39.38;99356.34;5015392;28;20056;-63
2021/06/19 05:20:17;;;;;;;12.63;4.07;;;;;;;29.27;40.62;99350.94;5014309;28;20092;-63
2021/06/19 05:22:43;;;;;;;9.82;3.70;;;;;;;29.11;40.40;99345.53;5014715;28;20034;-63
2021/06/19 05:25:09;;;;;;;8.60;3.45;;;;;;;28.75;41.07;99347.50;5014800;28;20040;-63
2021/06/19 05:27:34;;;;;;;11.48;3.60;;;;;;;30.30;37.71;99352.78;5014880;28;20476;-63
2021/06/19 05:29:59;;;;;;;10.85;3.88;;;;;;;29.45;39.48;99352.06;5014985;28;20038;-63
2021/06/19 05:32:25;;;;;;;8.63;3.47;;;;;;;28.39;41.89;99341.19;5014624;28;20451;-63
2021/06/19 05:34:51;;;;;;;11.40;3.90;;;;;;;29.75;38.41;99349.47;5013232;28;20060;-63
2021/06/19 05:37:16;;;;;;;10.32;3.90;;;;;;;30.72;36.60;99362.84;5014277;28;20038;-63
2021/06/19 05:39:42;;;;;;;11.52;3.97;;;;;;;31.41;35.70;99364.50;5014840;28;20084;-62
2021/06/19 05:42:08;;;;;;;9.38;3.78;;;;;;;30.42;37.64;99360.03;5012946;28;20060;-63
2021/06/19 05:44:33;;;;;;;10.63;3.95;;;;;;;31.51;36.11;99361.06;5014775;28;20030;-64
2021/06/19 05:46:59;;;;;;;15.18;3.75;;;;;;;33.20;32.69;99365.00;5014159;28;20053;-61
2021/06/19 05:49:24;;;;;;;12.20;3.70;;;;;;;32.79;32.23;99360.47;5014355;28;20045;-62
2021/06/19 05:51:49;;;;;;;9.50;3.53;;;;;;;32.95;33.03;99353.78;5014464;28;20038;-61
2021/06/19 05:54:15;;;;;;;11.55;3.63;;;;;;;33.47;31.44;99348.81;5014520;28;20404;-64
2021/06/19 05:56:40;;;;;;;7.18;3.10;;;;;;;33.23;31.67;99353.94;5014139;28;20527;-62
2021/06/19 05:59:06;;;;;;;11.23;3.33;;;;;;;32.91;32.51;99358.56;5014176;28;20057;-62
2021/06/19 06:01:31;;;;;;;8.70;3.58;;;;;;;33.79;30.96;99351.66;5014488;28;20051;-62
2021/06/19 06:03:58;;;;;;;7.82;3.42;;;;;;;34.38;29.86;99356.81;5014191;28;20028;-62
2021/06/19 06:06:23;;;;;;;8.07;3.33;;;;;;;31.85;34.03;99360.97;5014395;28;20092;-62
2021/06/19 06:08:49;;;;;;;14.25;4.82;;;;;;;33.59;31.54;99359.59;5014321;28;20038;-62
2021/06/19 06:11:14;;;;;;;21.35;13.35;;;;;;;34.84;29.49;99358.69;5011789;28;20111;-61
2021/06/19 06:13:40;;;;;;;11.95;7.22;;;;;;;32.96;32.55;99361.75;5014008;28;20534;-63
2021/06/19 06:16:05;;;;;;;10.57;4.60;;;;;;;33.98;30.76;99367.16;5014028;28;20096;-62
2021/06/19 06:18:31;;;;;;;14.15;5.32;;;;;;;32.90;32.23;99368.03;5014186;28;20057;-62
2021/06/19 06:20:56;;;;;;;15.25;4.95;;;;;;;31.21;36.10;99363.09;5013652;28;20041;-62
2021/06/19 06:23:23;;;;;;;8.52;4.07;;;;;;;31.97;34.40;99369.00;5014153;28;20318;-62
2021/06/19 06:25:50;;;;;;;10.73;4.15;;;;;;;32.12;34.38;99367.16;5013738;28;20036;-62
2021/06/19 06:28:15;;;;;;;17.02;4.28;;;;;;;33.42;32.12;99374.19;5013926;28;20041;-62
2021/06/19 06:30:40;;;;;;;15.73;3.80;;;;;;;32.98;32.83;99378.03;5013676;28;20030;-62
2021/06/19 06:33:06;;;;;;;7.90;3.78;;;;;;;33.22;31.47;99380.09;5013553;28;20026;-62
2021/06/19 06:35:31;;;;;;;6.68;3.17;;;;;;;31.91;34.52;99378.84;5012258;28;20044;-62
2021/06/19 06:37:57;;;;;;;10.60;3.60;;;;;;;33.22;32.18;99382.88;5014035;28;20026;-62
2021/06/19 06:40:22;;;;;;;8.55;3.40;;;;;;;33.82;31.08;99383.44;5013403;28;20049;-62
2021/06/19 06:42:47;;;;;;;6.20;2.83;;;;;;;33.13;31.36;99388.03;5013960;28;20037;-62
2021/06/19 06:45:13;;;;;;;7.75;3.33;;;;;;;33.65;30.72;99383.03;5013207;28;20034;-63
2021/06/19 06:47:39;;;;;;;12.80;3.17;;;;;;;33.46;31.22;99384.13;5013798;28;20101;-62
2021/06/19 06:50:05;;;;;;;7.85;3.47;;;;;;;33.32;30.90;99384.09;5011964;28;20026;-62
2021/06/19 06:52:31;;;;;;;7.75;3.53;;;;;;;33.41;31.24;99386.50;5013812;28;20421;-62
2021/06/19 06:54:57;;;;;;;10.30;3.22;;;;;;;33.16;31.68;99376.13;5013186;28;20030;-62
2021/06/19 06:57:22;;;;;;;9.15;3.20;;;;;;;33.96;30.60;99382.66;5013357;28;20377;-62
2021/06/19 06:59:48;;;;;;;8.20;3.30;;;;;;;33.64;30.83;99380.63;5011587;28;20042;-62
2021/06/19 07:02:13;;;;;;;8.90;3.20;;;;;;;33.47;31.40;99380.19;5011629;28;20038;-62
2021/06/19 07:04:38;;;;;;;6.97;3.38;;;;;;;32.99;31.66;99376.81;5013351;28;20038;-62
2021/06/19 07:07:04;;;;;;;5.85;3.38;;;;;;;32.56;32.19;99379.38;5013015;28;20049;-62
2021/06/19 07:09:29;;;;;;;9.38;3.45;;;;;;;33.59;30.87;99370.69;5013637;28;20464;-62
2021/06/19 07:11:55;;;;;;;8.13;3.70;;;;;;;31.90;33.52;99359.81;5013176;28;20033;-62
2021/06/19 07:14:20;;;;;;;10.20;3.53;;;;;;;34.02;30.12;99365.16;5013722;28;20353;-62
2021/06/19 07:16:45;;;;;;;9.10;3.53;;;;;;;33.30;31.70;99370.63;5013272;28;20041;-62
2021/06/19 07:19:11;;;;;;;11.10;3.47;;;;;;;33.82;31.02;99366.75;5013798;28;20473;-62
2021/06/19 07:21:36;;;;;;;6.38;3.55;;;;;;;33.14;31.74;99367.38;5013127;28;20034;-62
2021/06/19 07:24:02;;;;;;;9.77;4.03;;;;;;;32.92;31.99;99363.69;5013451;28;20030;-63
2021/06/19 07:26:27;;;;;;;11.30;4.00;;;;;;;31.42;35.18;99360.56;5012832;28;20116;-62
2021/06/19 07:28:53;;;;;;;6.75;3.60;;;;;;;33.48;31.32;99362.31;5011851;28;20037;-62
2021/06/19 07:31:21;;;;;;;11.75;3.78;;;;;;;32.52;32.92;99364.69;5013246;28;20046;-62
2021/06/19 07:33:46;;;;;;;;;;;;;;;32.80;32.28;99364.84;5013761;28;20404;-62
2021/06/19 07:36:11;;;;;;;8.10;3.80;;;;;;;31.90;34.45;99351.50;5013089;28;19921;-62
2021/06/19 07:38:37;;;;;;;8.88;3.70;;;;;;;31.05;35.36;99357.72;5013458;28;20626;-62
2021/06/19 07:41:02;;;;;;;9.75;4.10;;;;;;;32.44;33.69;99361.84;5012922;28;20038;-62
2021/06/19 07:43:28;;;;;;;9.63;3.53;;;;;;;33.97;29.92;99351.66;5013528;28;20033;-62
2021/06/19 07:45:53;;;;;;;7.68;3.55;;;;;;;32.22;33.23;99346.25;5013025;28;20480;-62
2021/06/19 07:48:19;;;;;;;11.75;3.70;;;;;;;32.27;33.59;99342.31;5013344;28;20030;-62
2021/06/19 07:50:44;;;;;;;10.27;4.10;;;;;;;30.72;36.95;99345.44;5012782;28;20033;-62
2021/06/19 07:53:10;;;;;;;12.77;4.28;;;;;;;33.25;32.25;99353.53;5013084;28;20025;-62
2021/06/19 07:55:35;;;;;;;7.43;3.67;;;;;;;33.48;31.66;99350.44;5012698;28;20087;-62
2021/06/19 07:58:01;;;;;;;7.55;3.70;;;;;;;31.58;34.88;99352.81;5013093;28;20026;-62
2021/06/19 08:00:29;;;;;;;9.38;4.10;;;;;;;32.76;32.74;99352.13;5012551;28;20061;-62
2021/06/19 08:02:54;;;;;;;7.72;4.03;;;;;;;32.99;32.82;99362.94;5013037;28;20026;-62
2021/06/19 08:05:20;;;;;;;9.85;4.05;;;;;;;31.65;33.01;99365.13;5012848;28;20114;-62
2021/06/19 08:07:45;;;;;;;9.65;3.65;;;;;;;31.37;34.57;99358.09;5013016;28;20026;-62
2021/06/19 08:10:11;;;;;;;7.95;3.88;;;;;;;31.14;34.82;99358.25;5012549;28;20022;-62
2021/06/19 08:12:37;;;;;;;8.80;3.70;;;;;;;32.68;32.82;99359.63;5013365;28;20033;-62
2021/06/19 08:15:04;;;;;;;14.98;3.65;;;;;;;33.15;31.20;99368.16;5011493;28;20030;-62
2021/06/19 08:17:30;;;;;;;11.07;3.78;;;;;;;33.87;30.99;99372.72;5013093;28;20388;-62
2021/06/19 08:19:55;;;;;;;10.98;3.85;;;;;;;32.82;32.88;99384.66;5012668;28;20033;-62
2021/06/19 08:22:21;;;;;;;6.50;3.50;;;;;;;32.77;32.91;99365.59;5012379;28;20038;-62
2021/06/19 08:24:47;;;;;;;8.95;3.75;;;;;;;33.52;31.46;99370.66;5012555;28;20045;-62
2021/06/19 08:27:13;;;;;;;14.63;3.70;;;;;;;34.79;30.14;99362.69;5012243;28;20049;-62
2021/06/19 08:29:38;;;;;;;9.57;3.75;;;;;;;34.46;29.15;99363.97;5012572;28;20026;-62
2021/06/19 08:32:04;;;;;;;7.38;3.53;;;;;;;34.13;30.23;99362.44;5012047;28;20104;-62
2021/06/19 08:34:29;;;;;;;8.95;3.58;;;;;;;34.42;29.40;99354.81;5012564;28;20088;-62
2021/06/19 08:36:55;;;;;;;5.97;3.45;;;;;;;35.79;27.00;99355.81;5012264;28;20358;-62
2021/06/19 08:39:20;;;;;;;9.95;3.95;;;;;;;34.82;28.76;99361.09;5012483;28;20034;-62
2021/06/19 08:41:48;;;;;;;12.93;3.90;;;;;;;34.86;28.89;99345.16;5012179;28;20038;-62
2021/06/19 08:44:23;;;;;;;8.77;3.30;;;;;;;32.97;31.81;99348.66;5011241;28;20034;-62
2021/06/19 08:46:53;;;;;;;9.23;3.58;;;;;;;32.97;31.72;99340.31;5012228;28;20030;-62
2021/06/19 08:49:22;;;;;;;5.88;3.20;;;;;;;33.02;30.91;99337.16;5012510;28;20376;-62
2021/06/19 08:51:47;;;;;;;8.60;3.40;;;;;;;31.87;32.94;99330.91;5012091;28;20072;-62
2021/06/19 08:54:13;;;;;;;8.48;3.33;;;;;;;33.21;30.68;99328.53;5011056;28;20042;-62
2021/06/19 08:56:42;;;;;;;10.82;3.63;;;;;;;32.87;31.08;99314.94;5014593;28;20034;-62
2021/06/19 08:59:07;;;;;;;9.35;3.85;;;;;;;33.00;30.58;99306.22;5014762;28;20392;-62
2021/06/19 09:01:33;;;;;;;13.50;3.53;;;;;;;31.91;33.25;99309.56;5015714;28;20034;-62
2021/06/19 09:04:03;;;;;;;8.73;3.38;;;;;;;33.28;30.52;99317.44;5015874;28;20428;-62
2021/06/19 09:06:29;;;;;;;11.18;3.28;;;;;;;29.84;36.98;99302.28;5015317;28;20034;-62
2021/06/19 09:09:20;;;;;;;8.93;3.58;;;;;;;29.23;37.45;99290.97;5015822;28;20026;-62
2021/06/19 09:11:47;;;;;;;10.07;3.47;;;;;;;31.73;33.83;99297.56;5014217;28;20038;-62
2021/06/19 09:14:14;;;;;;;9.98;3.35;;;;;;;32.39;31.02;99284.53;5015844;28;20131;-62
2021/06/19 09:16:43;;;;;;;10.05;3.45;;;;;;;34.02;29.65;99281.75;5015550;28;20045;-62
2021/06/19 09:19:28;;;;;;;14.27;3.50;;;;;;;33.05;30.90;99280.88;4998528;28;20030;-61
2021/06/19 09:22:12;;;;;;;8.32;3.28;;;;;;;33.05;30.51;99286.44;5015180;28;20044;-61
2021/06/19 09:24:45;;;;;;;5.78;3.17;;;;;;;32.10;31.48;99288.31;5015440;28;20030;-61
2021/06/19 09:27:45;;;;;;;9.73;3.17;;;;;;;30.35;35.97;99298.31;5014951;28;20045;-62
2021/06/19 09:30:15;;;;;;;5.88;3.40;;;;;;;28.78;38.67;99297.94;5003350;28;20045;-62
2021/06/19 09:32:44;;;;;;;7.15;3.15;;;;;;;31.48;33.54;99287.06;5015388;28;20071;-62
2021/06/19 09:35:17;;;;;;;6.97;3.08;;;;;;;32.31;32.00;99288.47;5013622;28;20026;-62
2021/06/19 09:37:46;;;;;;;7.07;3.03;;;;;;;30.68;34.21;99287.31;5015265;28;20409;-62
2021/06/19 09:40:21;;;;;;;7.88;3.25;;;;;;;30.14;36.42;99277.47;5013466;28;20109;-62
2021/06/19 09:42:48;;;;;;;8.13;3.10;;;;;;;32.54;31.06;99279.09;5013915;28;20049;-62
2021/06/19 09:45:19;;;;;;;7.65;3.13;;;;;;;32.71;31.03;99270.06;5013281;28;20436;-62
2021/06/19 09:47:45;;;;;;;5.93;2.97;;;;;;;31.99;33.54;99264.09;5014001;28;20391;-62
2021/06/19 09:50:11;;;;;;;9.25;3.55;;;;;;;33.08;30.25;99253.16;5014651;28;20032;-62
2021/06/19 09:52:36;;;;;;;8.73;3.47;;;;;;;30.82;34.73;99242.44;4997622;28;20025;-62
2021/06/19 09:55:02;;;;;;;7.68;3.42;;;;;;;30.96;34.95;99241.81;5014404;28;20034;-62
2021/06/19 09:57:47;;;;;;;8.18;3.05;;;;;;;32.78;32.25;99249.88;4997232;28;20041;-62
2021/06/19 10:00:20;;;;;;;13.65;4.07;;;;;;;29.54;37.67;99250.47;5014366;28;20078;-62
2021/06/19 10:02:47;;;;;;;9.45;3.90;;;;;;;29.52;37.82;99255.56;5014703;28;20022;-62
2021/06/19 10:05:13;;;;;;;13.20;3.72;;;;;;;31.05;34.44;99244.25;5014452;28;20030;-62
2021/06/19 10:07:38;;;;;;;10.25;3.72;;;;;;;32.14;32.97;99248.38;5012515;28;20114;-62
2021/06/19 10:10:06;;;;;;;9.13;3.60;;;;;;;31.87;32.91;99253.31;5014344;28;20456;-62
2021/06/19 10:12:33;;;;;;;6.80;3.55;;;;;;;32.23;31.76;99250.81;5014577;28;20460;-62
2021/06/19 10:15:04;;;;;;;5.18;3.10;;;;;;;29.52;36.90;99246.50;5013206;28;20150;-62
2021/06/19 10:17:32;;;;;;;9.52;3.55;;;;;;;28.69;38.44;99257.97;5014422;28;20397;-62
2021/06/19 10:20:01;;;;;;;9.60;3.30;;;;;;;29.72;35.85;99238.94;5014388;28;20552;-62
2021/06/19 10:22:27;;;;;;;6.35;3.42;;;;;;;30.52;34.19;99231.41;5014071;28;20484;-62
2021/06/19 10:24:53;;;;;;;8.55;3.28;;;;;;;30.32;35.11;99219.69;5014214;28;20088;-62
2021/06/19 10:27:18;;;;;;;13.30;3.45;;;;;;;29.30;36.99;99224.03;5013792;28;20037;-62
2021/06/19 10:29:47;;;;;;;14.43;3.95;;;;;;;29.32;37.52;99216.19;4996622;28;20428;-62
2021/06/19 10:32:13;;;;;;;10.02;3.63;;;;;;;28.55;36.44;99203.31;5013393;28;20389;-61
2021/06/19 10:34:38;;;;;;;11.57;4.07;;;;;;;28.57;39.27;99201.78;5013939;28;20030;-63
2021/06/19 10:37:07;;;;;;;10.82;3.83;;;;;;;28.80;37.27;99201.03;5012332;28;20124;-62
2021/06/19 10:39:36;;;;;;;6.43;4.13;;;;;;;28.31;39.42;99201.63;5014050;28;20038;-62
2021/06/19 10:42:02;;;;;;;7.88;4.10;;;;;;;28.54;38.56;99205.28;5013692;28;20464;-64
2021/06/19 10:44:47;;;;;;;9.70;4.07;;;;;;;28.75;39.24;99206.84;5012649;28;20488;-62
2021/06/19 10:47:12;;;;;;;10.38;4.47;;;;;;;28.63;39.17;99202.31;5013303;28;20060;-62
2021/06/19 10:49:40;;;;;;;12.13;4.60;;;;;;;28.88;39.28;99199.22;5012932;28;20441;-62
2021/06/19 10:52:34;;;;;;;13.75;4.95;;;;;;;29.51;37.61;99189.69;5012320;28;20034;-62
2021/06/19 10:55:11;;;;;;;16.75;4.65;;;;;;;30.20;36.86;99193.06;5013956;28;20061;-62
2021/06/19 10:57:52;;;;;;;9.52;4.57;;;;;;;31.21;35.06;99199.75;4994069;28;20038;-62
2021/06/19 11:00:35;;;;;;;11.93;4.75;;;;;;;30.92;35.43;99189.19;4993493;28;20054;-62
2021/06/19 11:03:05;;;;;;;14.32;4.75;;;;;;;29.15;38.11;99194.59;4993988;28;20022;-62
2021/06/19 11:08:10;;;;;;;12.60;4.85;;;;;;;29.78;37.54;99187.72;5013718;28;20026;-62
2021/06/19 11:10:50;;;;;;;13.05;4.45;;;;;;;30.80;34.93;99185.88;5013243;28;20042;-61
2021/06/19 11:13:31;;;;;;;;;;;;;;;29.69;37.79;99176.19;5012516;28;20041;-62
2021/06/19 11:15:57;;;;;;;14.98;4.60;;;;;;;30.51;36.05;99169.00;5013302;28;19917;-62
2021/06/19 11:19:01;;;;;;;13.88;4.60;;;;;;;30.05;37.14;99158.94;5011752;28;20504;-62
2021/06/19 11:21:32;;;;;;;11.32;4.63;;;;;;;30.30;35.64;99175.88;4971623;28;20046;-62
2021/06/19 11:24:03;;;;;;;10.38;4.65;;;;;;;29.48;36.73;99169.13;4972215;28;20480;-62
2021/06/19 11:26:50;;;;;;;13.48;4.20;;;;;;;30.21;37.33;99169.78;4993941;28;20445;-61
2021/06/19 11:29:34;;;;;;;10.13;4.90;;;;;;;29.71;36.23;99169.13;5013507;28;20030;-63
2021/06/19 11:32:28;;;;;;;9.70;4.43;;;;;;;29.31;38.29;99175.19;5012989;28;20044;-64
2021/06/19 11:35:00;;;;;;;14.02;5.22;;;;;;;30.81;34.76;99173.66;5011920;28;20037;-63